sensor_id;sensor_type;location;lat;lon;timestamp;pressure;altitude;pressure_sealevel;temperature;humidity
61528;BME280;47395;42.032;-8.634;2023-07-13T00:01:50;76457.88;;;-148.63;56.47
61528;BME280;47395;42.032;-8.634;2023-07-13T00:03:52;76453.88;;;-148.63;56.32
61528;BME280;47395;42.032;-8.634;2023-07-13T00:06:00;76453.88;;;-148.63;56.44
61528;BME280;47395;42.032;-8.634;2023-07-13T00:08:02;76453.88;;;-148.63;56.15
61528;BME280;47395;42.032;-8.634;2023-07-13T00:10:04;76441.88;;;-148.63;56.09
61528;BME280;47395;42.032;-8.634;2023-07-13T00:12:19;76453.88;;;-148.63;56.25
61528;BME280;47395;42.032;-8.634;2023-07-13T00:14:22;76453.88;;;-148.63;56.17
61528;BME280;47395;42.032;-8.634;2023-07-13T00:16:23;76453.88;;;-148.63;56.39
61528;BME280;47395;42.032;-8.634;2023-07-13T00:18:24;76457.88;;;-148.63;56.32
61528;BME280;47395;42.032;-8.634;2023-07-13T00:20:25;76453.88;;;-148.63;56.29
61528;BME280;47395;42.032;-8.634;2023-07-13T00:22:27;76457.88;;;-148.63;56.42
61528;BME280;47395;42.032;-8.634;2023-07-13T00:24:28;76459.88;;;-148.63;56.68
61528;BME280;47395;42.032;-8.634;2023-07-13T00:26:29;76461.88;;;-148.63;56.92
61528;BME280;47395;42.032;-8.634;2023-07-13T00:28:33;76457.88;;;-148.63;56.90
61528;BME280;47395;42.032;-8.634;2023-07-13T00:30:35;76455.88;;;-148.63;57.03
61528;BME280;47395;42.032;-8.634;2023-07-13T00:32:37;76459.88;;;-148.63;57.19
61528;BME280;47395;42.032;-8.634;2023-07-13T00:34:39;76471.91;;;-148.63;57.35
61528;BME280;47395;42.032;-8.634;2023-07-13T00:36:40;76491.91;;;-148.63;57.52
61528;BME280;47395;42.032;-8.634;2023-07-13T00:38:41;76487.91;;;-148.63;57.51
61528;BME280;47395;42.032;-8.634;2023-07-13T00:40:42;76493.91;;;-148.63;57.50
61528;BME280;47395;42.032;-8.634;2023-07-13T00:42:44;76487.91;;;-148.63;57.39
61528;BME280;47395;42.032;-8.634;2023-07-13T00:46:02;76495.91;;;-148.63;57.46
61528;BME280;47395;42.032;-8.634;2023-07-13T00:47:24;76505.91;;;-148.63;57.38
61528;BME280;47395;42.032;-8.634;2023-07-13T00:49:27;76509.91;;;-148.63;57.43
61528;BME280;47395;42.032;-8.634;2023-07-13T00:53:59;76527.91;;;-148.63;57.77
61528;BME280;47395;42.032;-8.634;2023-07-13T00:56:01;76533.94;;;-148.63;57.98
61528;BME280;47395;42.032;-8.634;2023-07-13T00:58:04;76531.94;;;-148.63;57.81
61528;BME280;47395;42.032;-8.634;2023-07-13T01:00:08;76539.94;;;-148.63;57.83
61528;BME280;47395;42.032;-8.634;2023-07-13T01:02:10;76531.94;;;-148.63;57.61
61528;BME280;47395;42.032;-8.634;2023-07-13T01:04:11;76541.94;;;-148.63;57.71
61528;BME280;47395;42.032;-8.634;2023-07-13T01:06:14;76547.94;;;-148.63;57.67
61528;BME280;47395;42.032;-8.634;2023-07-13T01:08:15;76561.94;;;-148.63;58.39
61528;BME280;47395;42.032;-8.634;2023-07-13T01:10:16;76559.94;;;-148.63;58.34
61528;BME280;47395;42.032;-8.634;2023-07-13T01:12:18;76553.94;;;-148.63;58.29
61528;BME280;47395;42.032;-8.634;2023-07-13T01:14:19;76559.94;;;-148.63;58.57
61528;BME280;47395;42.032;-8.634;2023-07-13T01:16:25;76559.94;;;-148.63;58.56
61528;BME280;47395;42.032;-8.634;2023-07-13T01:18:27;76553.94;;;-148.63;58.62
61528;BME280;47395;42.032;-8.634;2023-07-13T01:20:30;76557.94;;;-148.63;58.50
61528;BME280;47395;42.032;-8.634;2023-07-13T01:22:31;76555.94;;;-148.63;58.44
61528;BME280;47395;42.032;-8.634;2023-07-13T01:24:35;76553.94;;;-148.63;58.46
61528;BME280;47395;42.032;-8.634;2023-07-13T01:26:36;76551.94;;;-148.63;58.39
61528;BME280;47395;42.032;-8.634;2023-07-13T01:28:41;76549.94;;;-148.63;58.40
61528;BME280;47395;42.032;-8.634;2023-07-13T01:30:42;76549.94;;;-148.63;58.43
61528;BME280;47395;42.032;-8.634;2023-07-13T01:32:46;76551.94;;;-148.63;58.53
61528;BME280;47395;42.032;-8.634;2023-07-13T01:34:47;76557.94;;;-148.63;58.50
61528;BME280;47395;42.032;-8.634;2023-07-13T01:36:51;76553.94;;;-148.63;58.44
61528;BME280;47395;42.032;-8.634;2023-07-13T01:38:54;76559.94;;;-148.63;58.42
61528;BME280;47395;42.032;-8.634;2023-07-13T01:40:55;76553.94;;;-148.63;58.41
61528;BME280;47395;42.032;-8.634;2023-07-13T01:42:58;76559.94;;;-148.63;58.54
61528;BME280;47395;42.032;-8.634;2023-07-13T01:44:59;76561.94;;;-148.63;58.46
61528;BME280;47395;42.032;-8.634;2023-07-13T01:47:02;76557.94;;;-148.63;58.55
61528;BME280;47395;42.032;-8.634;2023-07-13T01:49:03;76575.94;;;-148.63;58.77
61528;BME280;47395;42.032;-8.634;2023-07-13T01:51:05;76581.94;;;-148.63;58.68
61528;BME280;47395;42.032;-8.634;2023-07-13T01:53:06;76583.94;;;-148.63;58.77
61528;BME280;47395;42.032;-8.634;2023-07-13T01:55:07;76597.97;;;-148.63;59.09
61528;BME280;47395;42.032;-8.634;2023-07-13T01:57:08;76575.94;;;-148.63;58.76
61528;BME280;47395;42.032;-8.634;2023-07-13T01:59:09;76571.94;;;-148.63;58.68
61528;BME280;47395;42.032;-8.634;2023-07-13T02:01:10;76577.94;;;-148.63;58.60
61528;BME280;47395;42.032;-8.634;2023-07-13T02:03:11;76563.94;;;-148.63;58.54
61528;BME280;47395;42.032;-8.634;2023-07-13T02:05:12;76565.94;;;-148.63;58.62
61528;BME280;47395;42.032;-8.634;2023-07-13T02:07:13;76563.94;;;-148.63;58.56
61528;BME280;47395;42.032;-8.634;2023-07-13T02:09:15;76557.94;;;-148.63;58.36
61528;BME280;47395;42.032;-8.634;2023-07-13T02:11:16;76549.94;;;-148.63;58.46
61528;BME280;47395;42.032;-8.634;2023-07-13T02:13:17;76543.94;;;-148.63;58.29
61528;BME280;47395;42.032;-8.634;2023-07-13T02:15:19;76551.94;;;-148.63;58.47
61528;BME280;47395;42.032;-8.634;2023-07-13T02:17:20;76549.94;;;-148.63;58.37
61528;BME280;47395;42.032;-8.634;2023-07-13T02:19:21;76547.94;;;-148.63;58.21
61528;BME280;47395;42.032;-8.634;2023-07-13T02:21:23;76541.94;;;-148.63;58.30
61528;BME280;47395;42.032;-8.634;2023-07-13T02:23:26;76543.94;;;-148.63;58.76
61528;BME280;47395;42.032;-8.634;2023-07-13T02:25:27;76547.94;;;-148.63;58.85
61528;BME280;47395;42.032;-8.634;2023-07-13T02:27:28;76549.94;;;-148.63;58.92
61528;BME280;47395;42.032;-8.634;2023-07-13T02:29:29;76549.94;;;-148.63;58.97
61528;BME280;47395;42.032;-8.634;2023-07-13T02:31:30;76561.94;;;-148.63;59.33
61528;BME280;47395;42.032;-8.634;2023-07-13T02:33:31;76553.94;;;-148.63;59.25
61528;BME280;47395;42.032;-8.634;2023-07-13T02:35:32;76549.94;;;-148.63;59.07
61528;BME280;47395;42.032;-8.634;2023-07-13T02:37:33;76535.94;;;-148.63;58.92
61528;BME280;47395;42.032;-8.634;2023-07-13T02:39:34;76535.94;;;-148.63;58.91
61528;BME280;47395;42.032;-8.634;2023-07-13T02:41:37;76527.91;;;-148.63;58.94
61528;BME280;47395;42.032;-8.634;2023-07-13T02:43:38;76523.91;;;-148.63;58.53
61528;BME280;47395;42.032;-8.634;2023-07-13T02:45:43;76525.91;;;-148.63;58.36
61528;BME280;47395;42.032;-8.634;2023-07-13T02:47:44;76535.94;;;-148.63;58.22
61528;BME280;47395;42.032;-8.634;2023-07-13T02:49:45;76533.94;;;-148.63;58.37
61528;BME280;47395;42.032;-8.634;2023-07-13T02:51:46;76537.94;;;-148.63;58.30
61528;BME280;47395;42.032;-8.634;2023-07-13T02:53:48;76539.94;;;-148.63;58.41
61528;BME280;47395;42.032;-8.634;2023-07-13T02:55:50;76547.94;;;-148.63;58.85
61528;BME280;47395;42.032;-8.634;2023-07-13T02:57:51;76557.94;;;-148.63;58.99
61528;BME280;47395;42.032;-8.634;2023-07-13T02:59:52;76555.94;;;-148.63;59.06
61528;BME280;47395;42.032;-8.634;2023-07-13T03:01:53;76557.94;;;-148.63;59.04
61528;BME280;47395;42.032;-8.634;2023-07-13T03:03:55;76557.94;;;-148.63;58.77
61528;BME280;47395;42.032;-8.634;2023-07-13T03:06:02;76559.94;;;-148.63;58.97
61528;BME280;47395;42.032;-8.634;2023-07-13T03:08:11;76579.94;;;-148.63;59.53
61528;BME280;47395;42.032;-8.634;2023-07-13T03:10:13;76573.94;;;-148.63;59.44
61528;BME280;47395;42.032;-8.634;2023-07-13T03:12:20;76575.94;;;-148.63;59.33
61528;BME280;47395;42.032;-8.634;2023-07-13T03:14:23;76569.94;;;-148.63;59.38
61528;BME280;47395;42.032;-8.634;2023-07-13T03:16:25;76583.94;;;-148.63;59.72
61528;BME280;47395;42.032;-8.634;2023-07-13T03:18:27;76599.97;;;-148.63;59.66
61528;BME280;47395;42.032;-8.634;2023-07-13T03:20:31;76609.97;;;-148.63;59.79
61528;BME280;47395;42.032;-8.634;2023-07-13T03:22:32;76597.97;;;-148.63;59.67
61528;BME280;47395;42.032;-8.634;2023-07-13T03:24:34;76611.97;;;-148.63;59.94
61528;BME280;47395;42.032;-8.634;2023-07-13T03:26:35;76617.97;;;-148.63;60.10
61528;BME280;47395;42.032;-8.634;2023-07-13T03:28:37;76627.97;;;-148.63;60.12
61528;BME280;47395;42.032;-8.634;2023-07-13T03:30:39;76633.97;;;-148.63;60.39
61528;BME280;47395;42.032;-8.634;2023-07-13T03:32:41;76633.97;;;-148.63;60.38
61528;BME280;47395;42.032;-8.634;2023-07-13T03:34:42;76625.97;;;-148.63;60.21
61528;BME280;47395;42.032;-8.634;2023-07-13T03:36:43;76621.97;;;-148.63;60.08
61528;BME280;47395;42.032;-8.634;2023-07-13T03:38:49;76611.97;;;-148.63;59.81
61528;BME280;47395;42.032;-8.634;2023-07-13T03:40:53;76617.97;;;-148.63;59.95
61528;BME280;47395;42.032;-8.634;2023-07-13T03:42:55;76619.97;;;-148.63;60.00
61528;BME280;47395;42.032;-8.634;2023-07-13T03:44:57;76621.97;;;-148.63;60.23
61528;BME280;47395;42.032;-8.634;2023-07-13T03:46:58;76631.97;;;-148.63;60.53
61528;BME280;47395;42.032;-8.634;2023-07-13T03:48:59;76646.00;;;-148.63;61.06
61528;BME280;47395;42.032;-8.634;2023-07-13T03:51:00;76629.97;;;-148.63;60.92
61528;BME280;47395;42.032;-8.634;2023-07-13T03:53:01;76629.97;;;-148.63;60.85
61528;BME280;47395;42.032;-8.634;2023-07-13T03:55:03;76623.97;;;-148.63;60.44
61528;BME280;47395;42.032;-8.634;2023-07-13T03:57:05;76631.97;;;-148.63;60.39
61528;BME280;47395;42.032;-8.634;2023-07-13T03:59:10;76625.97;;;-148.63;60.02
61528;BME280;47395;42.032;-8.634;2023-07-13T04:01:12;76617.97;;;-148.63;60.16
61528;BME280;47395;42.032;-8.634;2023-07-13T04:05:32;76625.97;;;-148.63;59.75
61528;BME280;47395;42.032;-8.634;2023-07-13T04:07:33;76625.97;;;-148.63;59.60
61528;BME280;47395;42.032;-8.634;2023-07-13T04:09:35;76637.97;;;-148.63;59.56
61528;BME280;47395;42.032;-8.634;2023-07-13T04:11:38;76639.97;;;-148.63;59.55
61528;BME280;47395;42.032;-8.634;2023-07-13T04:13:40;76642.00;;;-148.63;59.51
61528;BME280;47395;42.032;-8.634;2023-07-13T04:15:41;76654.00;;;-148.63;59.86
61528;BME280;47395;42.032;-8.634;2023-07-13T04:17:42;76650.00;;;-148.63;59.77
61528;BME280;47395;42.032;-8.634;2023-07-13T04:19:43;76656.00;;;-148.63;59.67
61528;BME280;47395;42.032;-8.634;2023-07-13T04:21:45;76662.00;;;-148.63;59.70
61528;BME280;47395;42.032;-8.634;2023-07-13T04:23:46;76674.00;;;-148.63;59.68
61528;BME280;47395;42.032;-8.634;2023-07-13T04:25:48;76674.00;;;-148.63;59.77
61528;BME280;47395;42.032;-8.634;2023-07-13T04:27:50;76672.00;;;-148.63;59.89
61528;BME280;47395;42.032;-8.634;2023-07-13T04:29:51;76684.00;;;-148.63;59.98
61528;BME280;47395;42.032;-8.634;2023-07-13T04:31:52;76682.00;;;-148.63;60.11
61528;BME280;47395;42.032;-8.634;2023-07-13T04:33:53;76672.00;;;-148.63;59.98
61528;BME280;47395;42.032;-8.634;2023-07-13T04:35:55;76680.00;;;-148.63;59.98
61528;BME280;47395;42.032;-8.634;2023-07-13T04:37:59;76680.00;;;-148.63;59.90
61528;BME280;47395;42.032;-8.634;2023-07-13T04:40:02;76674.00;;;-148.63;59.82
61528;BME280;47395;42.032;-8.634;2023-07-13T04:42:04;76678.00;;;-148.63;59.62
61528;BME280;47395;42.032;-8.634;2023-07-13T04:44:07;76682.00;;;-148.63;59.74
61528;BME280;47395;42.032;-8.634;2023-07-13T04:46:10;76716.03;;;-148.63;60.85
61528;BME280;47395;42.032;-8.634;2023-07-13T04:48:12;76722.03;;;-148.63;61.29
61528;BME280;47395;42.032;-8.634;2023-07-13T04:50:14;76722.03;;;-148.63;61.40
61528;BME280;47395;42.032;-8.634;2023-07-13T04:52:21;76710.03;;;-148.63;61.08
61528;BME280;47395;42.032;-8.634;2023-07-13T04:54:23;76742.03;;;-148.63;61.83
61528;BME280;47395;42.032;-8.634;2023-07-13T04:56:31;76714.03;;;-148.63;61.43
61528;BME280;47395;42.032;-8.634;2023-07-13T04:58:33;76722.03;;;-148.63;61.41
61528;BME280;47395;42.032;-8.634;2023-07-13T05:00:34;76738.03;;;-148.63;61.86
61528;BME280;47395;42.032;-8.634;2023-07-13T05:02:37;76726.03;;;-148.63;61.53
61528;BME280;47395;42.032;-8.634;2023-07-13T05:04:39;76718.03;;;-148.63;61.20
61528;BME280;47395;42.032;-8.634;2023-07-13T05:06:41;76722.03;;;-148.63;61.21
61528;BME280;47395;42.032;-8.634;2023-07-13T05:08:43;76710.03;;;-148.63;61.07
61528;BME280;47395;42.032;-8.634;2023-07-13T05:10:44;76712.03;;;-148.63;61.05
61528;BME280;47395;42.032;-8.634;2023-07-13T05:12:46;76704.03;;;-148.63;60.98
61528;BME280;47395;42.032;-8.634;2023-07-13T05:14:47;76690.00;;;-148.63;60.94
61528;BME280;47395;42.032;-8.634;2023-07-13T05:16:51;76684.00;;;-148.63;60.65
61528;BME280;47395;42.032;-8.634;2023-07-13T05:18:53;76674.00;;;-148.63;60.37
61528;BME280;47395;42.032;-8.634;2023-07-13T05:20:57;76662.00;;;-148.63;60.38
61528;BME280;47395;42.032;-8.634;2023-07-13T05:22:58;76676.00;;;-148.63;60.27
61528;BME280;47395;42.032;-8.634;2023-07-13T05:24:59;76692.00;;;-148.63;60.06
61528;BME280;47395;42.032;-8.634;2023-07-13T05:27:01;76702.03;;;-148.63;59.89
61528;BME280;47395;42.032;-8.634;2023-07-13T05:29:02;76692.00;;;-148.63;60.19
61528;BME280;47395;42.032;-8.634;2023-07-13T05:31:06;76710.03;;;-148.63;60.27
61528;BME280;47395;42.032;-8.634;2023-07-13T05:33:07;76706.03;;;-148.63;60.28
61528;BME280;47395;42.032;-8.634;2023-07-13T05:35:08;76698.03;;;-148.63;60.06
61528;BME280;47395;42.032;-8.634;2023-07-13T05:37:10;76690.00;;;-148.63;59.79
61528;BME280;47395;42.032;-8.634;2023-07-13T05:39:11;76708.03;;;-148.63;60.12
61528;BME280;47395;42.032;-8.634;2023-07-13T05:41:12;76698.03;;;-148.63;60.02
61528;BME280;47395;42.032;-8.634;2023-07-13T05:43:13;76690.00;;;-148.63;59.82
61528;BME280;47395;42.032;-8.634;2023-07-13T05:45:15;76692.00;;;-148.63;59.71
61528;BME280;47395;42.032;-8.634;2023-07-13T05:47:16;76686.00;;;-148.63;59.66
61528;BME280;47395;42.032;-8.634;2023-07-13T05:49:17;76664.00;;;-148.63;59.38
61528;BME280;47395;42.032;-8.634;2023-07-13T05:51:19;76650.00;;;-148.63;59.17
61528;BME280;47395;42.032;-8.634;2023-07-13T05:53:20;76635.97;;;-148.63;58.75
61528;BME280;47395;42.032;-8.634;2023-07-13T05:55:21;76613.97;;;-148.63;58.40
61528;BME280;47395;42.032;-8.634;2023-07-13T05:57:22;76593.97;;;-148.63;57.82
61528;BME280;47395;42.032;-8.634;2023-07-13T05:59:24;76561.94;;;-148.63;57.28
61528;BME280;47395;42.032;-8.634;2023-07-13T06:01:25;76551.94;;;-148.63;56.82
61528;BME280;47395;42.032;-8.634;2023-07-13T06:03:26;76497.91;;;-148.63;56.02
61528;BME280;47395;42.032;-8.634;2023-07-13T06:05:27;76459.88;;;-148.63;55.63
61528;BME280;47395;42.032;-8.634;2023-07-13T06:07:29;76425.88;;;-148.63;54.96
61528;BME280;47395;42.032;-8.634;2023-07-13T06:09:31;76381.84;;;-148.63;54.45
61528;BME280;47395;42.032;-8.634;2023-07-13T06:11:32;76383.84;;;-148.63;53.70
61528;BME280;47395;42.032;-8.634;2023-07-13T06:13:33;76357.84;;;-148.63;53.22
61528;BME280;47395;42.032;-8.634;2023-07-13T06:15:36;76385.84;;;-148.63;53.65
61528;BME280;47395;42.032;-8.634;2023-07-13T06:17:37;76353.84;;;-148.63;53.32
61528;BME280;47395;42.032;-8.634;2023-07-13T06:19:38;76309.81;;;-148.63;52.99
61528;BME280;47395;42.032;-8.634;2023-07-13T06:21:39;76361.84;;;-148.63;53.54
61528;BME280;47395;42.032;-8.634;2023-07-13T06:23:41;76295.81;;;-148.63;52.55
61528;BME280;47395;42.032;-8.634;2023-07-13T06:25:43;76309.81;;;-148.63;52.59
61528;BME280;47395;42.032;-8.634;2023-07-13T06:27:44;76257.78;;;-148.63;51.59
61528;BME280;47395;42.032;-8.634;2023-07-13T06:29:45;76205.75;;;-148.63;50.87
61528;BME280;47395;42.032;-8.634;2023-07-13T06:31:46;76183.75;;;-148.63;50.35
61528;BME280;47395;42.032;-8.634;2023-07-13T06:33:47;76139.72;;;-148.63;49.65
61528;BME280;47395;42.032;-8.634;2023-07-13T06:35:49;76093.72;;;-148.63;49.32
61528;BME280;47395;42.032;-8.634;2023-07-13T06:37:50;76053.69;;;-148.63;48.00
61528;BME280;47395;42.032;-8.634;2023-07-13T06:39:51;76023.69;;;-148.63;47.62
61528;BME280;47395;42.032;-8.634;2023-07-13T06:41:52;76019.69;;;-148.63;46.97
61528;BME280;47395;42.032;-8.634;2023-07-13T06:43:53;75943.66;;;-148.63;46.06
61528;BME280;47395;42.032;-8.634;2023-07-13T06:45:55;75873.63;;;-148.63;45.13
61528;BME280;47395;42.032;-8.634;2023-07-13T06:47:56;75825.59;;;-148.63;44.50
61528;BME280;47395;42.032;-8.634;2023-07-13T06:49:57;75853.63;;;-148.63;44.19
61528;BME280;47395;42.032;-8.634;2023-07-13T06:51:58;75827.59;;;-148.63;43.68
61528;BME280;47395;42.032;-8.634;2023-07-13T06:53:59;75791.59;;;-148.63;43.70
61528;BME280;47395;42.032;-8.634;2023-07-13T06:56:00;75665.53;;;-148.63;41.97
61528;BME280;47395;42.032;-8.634;2023-07-13T06:58:01;75661.53;;;-148.63;41.75
61528;BME280;47395;42.032;-8.634;2023-07-13T07:00:02;75527.50;;;-148.63;40.24
61528;BME280;47395;42.032;-8.634;2023-07-13T07:02:03;75463.47;;;-148.63;39.62
61528;BME280;47395;42.032;-8.634;2023-07-13T07:04:05;75343.44;;;-148.63;38.13
61528;BME280;47395;42.032;-8.634;2023-07-13T07:06:13;75295.44;;;-148.63;37.10
61528;BME280;47395;42.032;-8.634;2023-07-13T07:08:14;75279.44;;;-148.63;36.50
61528;BME280;47395;42.032;-8.634;2023-07-13T07:10:16;75173.41;;;-148.63;35.92
61528;BME280;47395;42.032;-8.634;2023-07-13T07:12:17;75225.44;;;-148.63;35.82
61528;BME280;47395;42.032;-8.634;2023-07-13T07:14:18;75141.41;;;-148.63;34.86
61528;BME280;47395;42.032;-8.634;2023-07-13T07:16:19;74993.38;;;-148.63;33.49
61528;BME280;47395;42.032;-8.634;2023-07-13T07:18:21;74927.38;;;-148.63;32.87
61528;BME280;47395;42.032;-8.634;2023-07-13T07:20:22;74843.34;;;-148.63;32.16
61528;BME280;47395;42.032;-8.634;2023-07-13T07:22:23;74879.38;;;-148.63;32.22
61528;BME280;47395;42.032;-8.634;2023-07-13T07:24:26;74745.34;;;-148.63;31.04
61528;BME280;47395;42.032;-8.634;2023-07-13T07:26:27;74809.34;;;-148.63;31.00
61528;BME280;47395;42.032;-8.634;2023-07-13T07:28:28;74851.34;;;-148.63;31.88
61528;BME280;47395;42.032;-8.634;2023-07-13T07:30:30;74847.34;;;-148.63;32.10
61528;BME280;47395;42.032;-8.634;2023-07-13T07:32:31;74895.38;;;-148.63;32.29
61528;BME280;47395;42.032;-8.634;2023-07-13T07:34:32;74785.34;;;-148.63;31.47
61528;BME280;47395;42.032;-8.634;2023-07-13T07:36:33;74725.34;;;-148.63;30.82
61528;BME280;47395;42.032;-8.634;2023-07-13T07:38:34;74805.34;;;-148.63;31.36
61528;BME280;47395;42.032;-8.634;2023-07-13T07:40:39;74731.34;;;-148.63;31.02
61528;BME280;47395;42.032;-8.634;2023-07-13T07:42:41;74679.34;;;-148.63;30.27
61528;BME280;47395;42.032;-8.634;2023-07-13T07:44:42;74555.34;;;-148.63;29.79
61528;BME280;47395;42.032;-8.634;2023-07-13T07:46:43;74581.34;;;-148.63;29.86
61528;BME280;47395;42.032;-8.634;2023-07-13T07:48:44;74693.34;;;-148.63;29.93
61528;BME280;47395;42.032;-8.634;2023-07-13T07:50:48;74671.34;;;-148.63;30.33
61528;BME280;47395;42.032;-8.634;2023-07-13T07:52:49;74683.34;;;-148.63;30.20
61528;BME280;47395;42.032;-8.634;2023-07-13T07:54:50;74667.34;;;-148.63;30.22
61528;BME280;47395;42.032;-8.634;2023-07-13T07:56:51;74621.34;;;-148.63;29.55
61528;BME280;47395;42.032;-8.634;2023-07-13T07:58:52;74493.34;;;-148.63;28.79
61528;BME280;47395;42.032;-8.634;2023-07-13T08:00:53;74485.34;;;-148.63;28.83
61528;BME280;47395;42.032;-8.634;2023-07-13T08:02:54;74385.31;;;-148.63;28.01
61528;BME280;47395;42.032;-8.634;2023-07-13T08:04:55;74443.31;;;-148.63;28.00
61528;BME280;47395;42.032;-8.634;2023-07-13T08:06:56;74351.31;;;-148.63;27.64
61528;BME280;47395;42.032;-8.634;2023-07-13T08:08:59;74353.31;;;-148.63;27.64
61528;BME280;47395;42.032;-8.634;2023-07-13T08:11:03;74363.31;;;-148.63;27.79
61528;BME280;47395;42.032;-8.634;2023-07-13T08:13:04;74275.31;;;-148.63;27.45
61528;BME280;47395;42.032;-8.634;2023-07-13T08:15:07;74297.31;;;-148.63;27.50
61528;BME280;47395;42.032;-8.634;2023-07-13T08:17:10;74357.31;;;-148.63;27.65
61528;BME280;47395;42.032;-8.634;2023-07-13T08:19:11;74349.31;;;-148.63;27.60
61528;BME280;47395;42.032;-8.634;2023-07-13T08:21:12;74261.31;;;-148.63;26.91
61528;BME280;47395;42.032;-8.634;2023-07-13T08:23:13;74183.34;;;-148.63;26.85
61528;BME280;47395;42.032;-8.634;2023-07-13T08:25:16;74093.34;;;-148.63;25.68
61528;BME280;47395;42.032;-8.634;2023-07-13T08:27:17;74179.34;;;-148.63;26.55
61528;BME280;47395;42.032;-8.634;2023-07-13T08:29:18;74207.34;;;-148.63;27.19
61528;BME280;47395;42.032;-8.634;2023-07-13T08:31:19;74209.34;;;-148.63;26.63
61528;BME280;47395;42.032;-8.634;2023-07-13T08:33:22;74327.31;;;-148.63;27.66
61528;BME280;47395;42.032;-8.634;2023-07-13T08:35:26;74193.34;;;-148.63;27.24
61528;BME280;47395;42.032;-8.634;2023-07-13T08:37:27;74173.34;;;-148.63;26.79
61528;BME280;47395;42.032;-8.634;2023-07-13T08:39:30;73961.34;;;-148.63;24.76
61528;BME280;47395;42.032;-8.634;2023-07-13T08:41:31;73937.34;;;-148.63;25.16
61528;BME280;47395;42.032;-8.634;2023-07-13T08:43:36;73989.34;;;-148.63;25.49
61528;BME280;47395;42.032;-8.634;2023-07-13T08:45:45;74045.34;;;-148.63;25.46
61528;BME280;47395;42.032;-8.634;2023-07-13T08:48:13;74003.34;;;-148.63;25.73
61528;BME280;47395;42.032;-8.634;2023-07-13T08:50:19;74045.34;;;-148.63;26.16
61528;BME280;47395;42.032;-8.634;2023-07-13T08:52:54;73917.34;;;-148.63;25.18
61528;BME280;47395;42.032;-8.634;2023-07-13T08:54:58;73767.38;;;-148.63;24.02
61528;BME280;47395;42.032;-8.634;2023-07-13T08:57:16;73757.38;;;-148.63;24.10
61528;BME280;47395;42.032;-8.634;2023-07-13T08:59:24;73785.38;;;-148.63;24.29
61528;BME280;47395;42.032;-8.634;2023-07-13T09:04:18;73713.38;;;-148.63;23.71
61528;BME280;47395;42.032;-8.634;2023-07-13T09:06:23;73627.41;;;-148.63;23.10
61528;BME280;47395;42.032;-8.634;2023-07-13T09:09:05;73839.34;;;-148.63;24.24
61528;BME280;47395;42.032;-8.634;2023-07-13T09:11:41;73857.34;;;-148.63;24.20
61528;BME280;47395;42.032;-8.634;2023-07-13T09:16:24;73827.38;;;-148.63;24.26
61528;BME280;47395;42.032;-8.634;2023-07-13T09:20:59;73597.41;;;-148.63;22.94
61528;BME280;47395;42.032;-8.634;2023-07-13T09:23:09;73561.41;;;-148.63;22.89
61528;BME280;47395;42.032;-8.634;2023-07-13T09:25:31;73671.38;;;-148.63;23.23
61528;BME280;47395;42.032;-8.634;2023-07-13T09:27:39;73651.38;;;-148.63;23.08
61528;BME280;47395;42.032;-8.634;2023-07-13T09:29:45;73459.44;;;-148.63;21.94
61528;BME280;47395;42.032;-8.634;2023-07-13T09:31:53;73561.41;;;-148.63;22.82
61528;BME280;47395;42.032;-8.634;2023-07-13T09:33:55;73603.41;;;-148.63;22.96
61528;BME280;47395;42.032;-8.634;2023-07-13T09:35:58;73751.38;;;-148.63;24.01
61528;BME280;47395;42.032;-8.634;2023-07-13T09:38:10;73743.38;;;-148.63;23.82
61528;BME280;47395;42.032;-8.634;2023-07-13T09:40:37;73873.34;;;-148.63;25.34
61528;BME280;47395;42.032;-8.634;2023-07-13T09:42:41;73813.38;;;-148.63;24.92
61528;BME280;47395;42.032;-8.634;2023-07-13T09:44:58;73749.38;;;-148.63;24.22
61528;BME280;47395;42.032;-8.634;2023-07-13T09:46:59;73773.38;;;-148.63;24.93
61528;BME280;47395;42.032;-8.634;2023-07-13T09:49:00;73743.38;;;-148.63;24.25
61528;BME280;47395;42.032;-8.634;2023-07-13T09:51:14;73679.38;;;-148.63;23.82
61528;BME280;47395;42.032;-8.634;2023-07-13T09:53:17;73727.38;;;-148.63;24.43
61528;BME280;47395;42.032;-8.634;2023-07-13T09:57:46;73771.38;;;-148.63;24.99
61528;BME280;47395;42.032;-8.634;2023-07-13T09:59:51;73757.38;;;-148.63;24.75
61528;BME280;47395;42.032;-8.634;2023-07-13T10:01:52;73745.38;;;-148.63;24.42
61528;BME280;47395;42.032;-8.634;2023-07-13T10:03:53;73673.38;;;-148.63;23.63
61528;BME280;47395;42.032;-8.634;2023-07-13T10:06:03;73795.38;;;-148.63;24.90
61528;BME280;47395;42.032;-8.634;2023-07-13T10:08:05;73849.34;;;-148.63;25.41
61528;BME280;47395;42.032;-8.634;2023-07-13T10:10:22;73745.38;;;-148.63;24.51
61528;BME280;47395;42.032;-8.634;2023-07-13T10:12:24;73703.38;;;-148.63;24.44
61528;BME280;47395;42.032;-8.634;2023-07-13T10:14:26;73621.41;;;-148.63;23.32
61528;BME280;47395;42.032;-8.634;2023-07-13T10:16:30;73841.34;;;-148.63;25.11
61528;BME280;47395;42.032;-8.634;2023-07-13T10:18:55;73737.38;;;-148.63;24.43
61528;BME280;47395;42.032;-8.634;2023-07-13T10:21:11;73933.34;;;-148.63;25.18
61528;BME280;47395;42.032;-8.634;2023-07-13T10:23:21;73665.38;;;-148.63;24.14
61528;BME280;47395;42.032;-8.634;2023-07-13T10:25:30;73637.38;;;-148.63;23.71
61528;BME280;47395;42.032;-8.634;2023-07-13T10:27:35;73587.41;;;-148.63;23.75
61528;BME280;47395;42.032;-8.634;2023-07-13T10:29:42;73539.41;;;-148.63;23.24
61528;BME280;47395;42.032;-8.634;2023-07-13T10:31:45;73397.44;;;-148.63;22.36
61528;BME280;47395;42.032;-8.634;2023-07-13T10:33:46;73587.41;;;-148.63;22.74
61528;BME280;47395;42.032;-8.634;2023-07-13T10:35:48;73519.41;;;-148.63;23.07
61528;BME280;47395;42.032;-8.634;2023-07-13T10:37:57;73391.44;;;-148.63;21.95
61528;BME280;47395;42.032;-8.634;2023-07-13T10:40:05;73485.41;;;-148.63;22.25
61528;BME280;47395;42.032;-8.634;2023-07-13T10:42:39;73583.41;;;-148.63;22.82
61528;BME280;47395;42.032;-8.634;2023-07-13T10:44:42;73569.41;;;-148.63;23.21